Archival Weather

Chandler Muni

Chandler, Arizona (KCHD)

Report from: Wednesday, December 6, 2023 6:47 AM MST
Current time: Wednesday, April 24, 2024 11:40 AM MST

Current weather – Weather history – Daily summaries
Weather forecast

Temperature9.0°C (48.2°F)
Dew point5.0°C (41.0°F)
Winds Calm
Visibility10 mi. (16.1 km)
Clouds Sky clear
Altimeter30.12 in.Hg (1020 mB)
Relative humidity76 %
Density altitude-819 ft. (-250 m)
Flight conditions Visual Meteorological Conditions
Raw dataKCHD 061347Z 00000KT 10SM CLR 09/05 A3012
An error has occurred. This application may no longer respond until reloaded. Reload 🗙